Time;durP1;ratioP1;P1;durP2;ratioP2;P2;SDS_P1;SDS_P2;PMS_P1;PMS_P2;Temp;Humidity;BMP_temperature;BMP_pressure;BME280_temperature;BME280_humidity;BME280_pressure;Samples;Min_cycle;Max_cycle;Signal;HPM_P1;HPM_P2
2023/05/11 00:00:18;;;;;;;1.65;1.15;;;11.70;99.90;;;;;;6220535;28;20575;-79
2023/05/11 00:03:20;;;;;;;1.40;1.30;;;11.70;99.90;;;;;;6221466;28;20365;-78
2023/05/11 00:06:21;;;;;;;4.38;1.52;;;11.80;99.90;;;;;;6223483;28;20057;-80
2023/05/11 00:09:23;;;;;;;1.88;1.77;;;11.60;99.90;;;;;;6224109;28;20038;-78
2023/05/11 00:12:26;;;;;;;4.05;1.90;;;11.60;99.90;;;;;;6249341;28;20543;-79
2023/05/11 00:15:28;;;;;;;6.93;1.33;;;11.60;99.90;;;;;;6243899;28;20053;-79
2023/05/11 00:18:30;;;;;;;2.53;0.95;;;11.50;99.90;;;;;;6247778;28;20056;-78
2023/05/11 00:21:32;;;;;;;1.85;1.48;;;11.50;99.90;;;;;;6244297;28;20060;-78
2023/05/11 00:24:34;;;;;;;1.20;1.05;;;11.50;99.90;;;;;;6242855;28;20063;-78
2023/05/11 00:27:37;;;;;;;1.55;1.02;;;11.50;99.90;;;;;;6246048;28;20052;-79
2023/05/11 00:30:40;;;;;;;4.00;1.40;;;11.40;99.90;;;;;;6244267;28;20041;-80
2023/05/11 00:33:42;;;;;;;2.90;1.70;;;11.40;99.90;;;;;;6246627;28;22816;-78
2023/05/11 00:36:44;;;;;;;4.22;1.67;;;11.40;99.90;;;;;;6249750;28;20056;-79
2023/05/11 00:39:46;;;;;;;1.73;1.25;;;11.40;99.90;;;;;;6245325;28;20049;-79
2023/05/11 00:42:49;;;;;;;1.83;1.35;;;11.30;99.90;;;;;;6242506;28;20051;-78
2023/05/11 00:45:52;;;;;;;7.75;1.33;;;11.30;99.90;;;;;;6239989;28;20049;-78
2023/05/11 00:48:54;;;;;;;1.73;1.38;;;11.40;99.90;;;;;;6239919;28;20089;-78
2023/05/11 00:51:56;;;;;;;1.48;1.08;;;11.40;99.90;;;;;;6242033;28;20064;-79
2023/05/11 00:54:58;;;;;;;1.92;1.30;;;11.40;99.90;;;;;;6240518;28;20680;-78
2023/05/11 00:58:04;;;;;;;2.15;1.65;;;11.40;99.90;;;;;;6240835;28;20052;-80
2023/05/11 01:01:06;;;;;;;5.13;1.30;;;11.50;99.90;;;;;;6241356;28;20049;-81
2023/05/11 01:04:08;;;;;;;4.45;1.60;;;11.40;99.90;;;;;;6241030;28;20045;-80
2023/05/11 01:07:16;;;;;;;1.38;0.93;;;11.40;99.90;;;;;;6243161;28;20053;-80
2023/05/11 01:10:27;;;;;;;1.38;1.27;;;11.30;99.90;;;;;;6240015;28;20045;-79
2023/05/11 01:13:34;;;;;;;1.58;1.48;;;11.30;99.90;;;;;;6239491;28;20046;-79
2023/05/11 01:16:40;;;;;;;3.63;1.17;;;11.30;99.90;;;;;;6237744;28;20054;-79
2023/05/11 01:19:46;;;;;;;2.35;1.42;;;11.40;99.90;;;;;;6237050;28;20041;-80
2023/05/11 01:23:11;;;;;;;1.67;1.42;;;11.40;99.90;;;;;;6240654;28;20385;-80
2023/05/11 01:26:33;;;;;;;1.52;1.42;;;11.40;99.90;;;;;;6238463;28;20124;-80
2023/05/11 01:29:49;;;;;;;5.38;1.48;;;11.50;99.90;;;;;;6238359;28;20049;-79
2023/05/11 01:32:54;;;;;;;4.07;1.10;;;11.40;99.90;;;;;;6238058;28;20449;-80
2023/05/11 01:36:02;;;;;;;1.63;1.15;;;11.40;99.90;;;;;;6244528;28;20113;-78
2023/05/11 01:39:08;;;;;;;1.42;1.20;;;11.40;99.90;;;;;;6243217;28;20041;-78
2023/05/11 01:42:10;;;;;;;1.98;1.20;;;11.50;99.90;;;;;;6242285;28;20061;-79
2023/05/11 01:45:14;;;;;;;4.20;2.10;;;11.40;99.90;;;;;;6235009;28;20045;-78
2023/05/11 01:48:20;;;;;;;1.20;1.10;;;11.30;99.90;;;;;;6234844;28;20535;-78
2023/05/11 01:51:25;;;;;;;1.23;1.08;;;11.30;99.90;;;;;;6238894;28;20060;-79
2023/05/11 01:54:28;;;;;;;4.88;1.10;;;11.20;99.90;;;;;;6237065;28;20484;-78
2023/05/11 01:57:31;;;;;;;3.40;1.58;;;11.30;99.90;;;;;;6237680;28;20056;-79
2023/05/11 02:00:33;;;;;;;1.83;1.70;;;11.20;99.90;;;;;;6235625;28;20042;-79
2023/05/11 02:03:37;;;;;;;1.27;1.17;;;11.20;99.90;;;;;;6237523;28;20046;-78
2023/05/11 02:06:41;;;;;;;3.30;1.63;;;11.20;99.90;;;;;;6237841;28;20052;-78
2023/05/11 02:09:43;;;;;;;2.08;1.55;;;11.20;99.90;;;;;;6235857;28;20033;-80
2023/05/11 02:12:46;;;;;;;3.55;1.50;;;11.20;99.90;;;;;;6239933;28;20091;-79
2023/05/11 02:15:50;;;;;;;1.60;1.20;;;11.20;99.90;;;;;;6238429;28;20045;-79
2023/05/11 02:18:55;;;;;;;2.40;1.20;;;11.30;99.90;;;;;;6233737;28;20048;-79
2023/05/11 02:21:59;;;;;;;4.40;2.30;;;11.30;99.90;;;;;;6235183;28;20056;-79
2023/05/11 02:25:01;;;;;;;7.78;1.77;;;11.20;99.90;;;;;;6234859;28;20052;-79
2023/05/11 02:28:02;;;;;;;3.25;1.48;;;11.20;99.90;;;;;;6237524;28;20049;-78
2023/05/11 02:31:09;;;;;;;1.88;1.42;;;11.20;99.90;;;;;;6238080;28;20052;-79
2023/05/11 02:34:19;;;;;;;4.72;1.40;;;11.20;99.90;;;;;;6233872;28;20128;-78
2023/05/11 02:37:24;;;;;;;1.30;1.20;;;11.20;99.90;;;;;;6238252;28;20381;-79
2023/05/11 02:40:30;;;;;;;2.97;1.77;;;11.20;99.90;;;;;;6236235;28;20065;-79
2023/05/11 02:43:35;;;;;;;4.95;1.40;;;11.20;99.90;;;;;;6236523;28;20068;-79
2023/05/11 02:46:39;;;;;;;3.28;1.83;;;11.20;99.90;;;;;;6237233;28;20064;-79
2023/05/11 02:49:44;;;;;;;2.28;1.58;;;11.20;99.90;;;;;;6237689;28;20045;-79
2023/05/11 02:52:48;;;;;;;5.72;1.50;;;11.20;99.90;;;;;;6235971;28;20046;-80
2023/05/11 02:55:51;;;;;;;2.03;1.50;;;11.20;99.90;;;;;;6234614;28;20041;-79
2023/05/11 02:58:52;;;;;;;4.60;1.75;;;11.20;99.90;;;;;;6233055;28;20057;-78
2023/05/11 03:01:54;;;;;;;2.50;1.80;;;11.20;99.90;;;;;;6231615;28;20668;-78
2023/05/11 03:04:57;;;;;;;1.10;0.90;;;11.30;99.90;;;;;;6235707;28;20052;-79
2023/05/11 03:08:00;;;;;;;3.22;2.10;;;11.30;99.90;;;;;;6235401;28;20492;-78
2023/05/11 03:11:03;;;;;;;1.80;1.27;;;11.30;99.90;;;;;;6233710;28;20050;-79
2023/05/11 03:14:06;;;;;;;1.65;1.55;;;11.30;99.90;;;;;;6233754;28;20043;-79
2023/05/11 03:17:09;;;;;;;7.53;2.03;;;11.30;99.90;;;;;;6239095;28;20053;-79
2023/05/11 03:20:13;;;;;;;4.97;1.70;;;11.30;99.90;;;;;;6237514;28;20053;-79
2023/05/11 03:23:16;;;;;;;5.65;1.42;;;11.30;99.90;;;;;;6236280;28;20046;-79
2023/05/11 03:26:20;;;;;;;1.90;1.48;;;11.30;99.90;;;;;;6233551;28;20054;-79
2023/05/11 03:29:24;;;;;;;4.60;1.77;;;11.40;99.90;;;;;;6234889;28;20723;-78
2023/05/11 03:32:26;;;;;;;2.20;1.88;;;11.30;99.90;;;;;;6236739;28;20056;-78
2023/05/11 03:35:33;;;;;;;1.67;1.58;;;11.30;99.90;;;;;;6237010;28;20042;-80
2023/05/11 03:38:35;;;;;;;6.05;2.45;;;11.30;99.90;;;;;;6238538;28;20052;-79
2023/05/11 03:41:39;;;;;;;1.90;1.80;;;11.40;99.90;;;;;;6238457;28;20049;-79
2023/05/11 03:44:44;;;;;;;1.52;1.27;;;11.40;99.90;;;;;;6239699;28;20046;-79
2023/05/11 03:47:47;;;;;;;2.13;1.73;;;11.40;99.90;;;;;;6236163;28;20049;-79
2023/05/11 03:50:51;;;;;;;5.90;4.78;;;11.30;99.90;;;;;;6235670;28;20049;-79
2023/05/11 03:53:53;;;;;;;2.80;2.03;;;11.30;99.90;;;;;;6232247;28;20412;-80
2023/05/11 03:56:55;;;;;;;4.32;1.92;;;11.30;99.90;;;;;;6236872;28;20058;-80
2023/05/11 03:59:56;;;;;;;5.70;2.17;;;11.30;99.90;;;;;;6237267;28;20444;-79
2023/05/11 04:03:02;;;;;;;4.32;2.22;;;11.40;99.90;;;;;;6234532;28;20049;-80
2023/05/11 04:06:06;;;;;;;4.88;2.10;;;11.40;99.90;;;;;;6236964;28;20183;-79
2023/05/11 04:09:07;;;;;;;3.28;2.28;;;11.40;99.90;;;;;;6238440;28;20061;-80
2023/05/11 04:12:09;;;;;;;3.47;2.40;;;11.40;99.90;;;;;;6244231;28;20037;-79
2023/05/11 04:15:11;;;;;;;7.93;2.53;;;11.40;99.90;;;;;;6240112;28;20053;-79
2023/05/11 04:18:13;;;;;;;3.17;2.63;;;11.40;99.90;;;;;;6236372;28;20051;-79
2023/05/11 04:21:16;;;;;;;3.17;2.15;;;11.40;99.90;;;;;;6239938;28;20069;-80
2023/05/11 04:24:17;;;;;;;9.23;3.65;;;11.40;99.90;;;;;;6241580;28;20064;-80
2023/05/11 04:27:19;;;;;;;3.38;3.00;;;11.40;99.90;;;;;;6240820;28;20041;-80
2023/05/11 04:30:21;;;;;;;7.15;3.58;;;11.40;99.90;;;;;;6240234;28;20045;-79
2023/05/11 04:33:23;;;;;;;5.40;4.10;;;11.40;99.90;;;;;;6241309;28;20037;-80
2023/05/11 04:36:26;;;;;;;4.38;3.38;;;11.40;99.90;;;;;;6242178;28;20061;-80
2023/05/11 04:39:28;;;;;;;3.30;3.00;;;11.40;99.90;;;;;;6241774;28;20887;-80
2023/05/11 04:42:30;;;;;;;4.20;3.13;;;11.40;99.90;;;;;;6241330;28;20045;-79
2023/05/11 04:45:32;;;;;;;5.47;3.20;;;11.40;99.90;;;;;;6237974;28;20045;-79
2023/05/11 04:48:33;;;;;;;5.75;3.38;;;11.50;99.90;;;;;;6241082;28;20053;-80
2023/05/11 04:51:38;;;;;;;5.30;3.72;;;11.50;99.90;;;;;;6242699;28;20037;-79
2023/05/11 04:54:39;;;;;;;7.18;3.05;;;11.50;99.90;;;;;;6236731;28;20148;-79
2023/05/11 04:57:41;;;;;;;5.95;3.10;;;11.50;99.90;;;;;;6240609;28;20058;-81
2023/05/11 05:00:43;;;;;;;3.80;3.50;;;11.50;99.90;;;;;;6240455;28;20061;-80
2023/05/11 05:03:47;;;;;;;3.35;3.08;;;11.60;99.90;;;;;;6239133;28;20044;-80
2023/05/11 05:06:50;;;;;;;6.22;4.15;;;11.60;99.90;;;;;;6240169;28;20045;-79
2023/05/11 05:09:52;;;;;;;5.40;3.90;;;11.70;99.90;;;;;;6239865;28;20492;-80
2023/05/11 05:12:54;;;;;;;4.13;3.72;;;11.80;99.90;;;;;;6237178;28;20041;-79
2023/05/11 05:15:55;;;;;;;3.78;3.08;;;11.90;99.90;;;;;;6237718;28;20056;-80
2023/05/11 05:18:57;;;;;;;5.57;3.53;;;11.90;99.90;;;;;;6241071;28;20045;-80
2023/05/11 05:22:00;;;;;;;3.88;3.30;;;11.90;99.90;;;;;;6235620;28;20050;-79
2023/05/11 05:25:01;;;;;;;4.47;3.75;;;11.90;99.90;;;;;;6238686;28;20077;-79
2023/05/11 05:28:03;;;;;;;3.60;3.15;;;11.90;99.90;;;;;;6237676;28;20503;-79
2023/05/11 05:31:05;;;;;;;2.78;2.47;;;12.00;99.90;;;;;;6237468;28;20500;-80
2023/05/11 05:34:06;;;;;;;12.52;4.10;;;11.90;99.90;;;;;;6235347;28;20037;-80
2023/05/11 05:37:09;;;;;;;3.63;3.33;;;12.00;99.90;;;;;;6235506;28;20056;-80
2023/05/11 05:40:11;;;;;;;4.70;2.88;;;12.00;99.90;;;;;;6239309;28;20049;-80
2023/05/11 05:43:13;;;;;;;6.70;3.33;;;12.00;99.90;;;;;;6231830;28;20488;-81
2023/05/11 05:46:15;;;;;;;8.23;2.95;;;12.00;99.90;;;;;;6232568;28;20048;-79
2023/05/11 05:49:17;;;;;;;3.60;3.22;;;12.10;99.90;;;;;;6234221;28;20054;-79
2023/05/11 05:52:20;;;;;;;4.22;3.83;;;12.10;99.90;;;;;;6234599;28;20058;-79
2023/05/11 05:55:22;;;;;;;3.40;3.03;;;12.10;99.90;;;;;;6238750;28;20049;-80
2023/05/11 05:58:24;;;;;;;3.67;3.38;;;12.10;99.90;;;;;;6238375;28;20069;-79
2023/05/11 06:01:26;;;;;;;5.00;2.88;;;12.20;99.90;;;;;;6239199;28;20033;-78
2023/05/11 06:04:27;;;;;;;6.20;3.05;;;12.30;99.90;;;;;;6237924;28;20543;-78
2023/05/11 06:07:30;;;;;;;7.63;2.80;;;12.30;99.90;;;;;;6239514;28;20045;-77
2023/05/11 06:10:32;;;;;;;3.00;2.70;;;12.50;99.90;;;;;;6237699;28;20045;-80
2023/05/11 06:13:34;;;;;;;6.68;2.65;;;12.50;99.90;;;;;;6238575;28;20064;-79
2023/05/11 06:16:35;;;;;;;4.10;3.72;;;12.60;99.90;;;;;;6241412;28;20068;-78
2023/05/11 06:19:37;;;;;;;3.90;2.90;;;12.70;99.90;;;;;;6240249;28;20048;-79
2023/05/11 06:22:40;;;;;;;3.80;2.60;;;12.80;99.90;;;;;;6240874;28;20045;-79
2023/05/11 06:25:42;;;;;;;4.05;2.75;;;12.80;99.90;;;;;;6255746;28;20060;-78
2023/05/11 06:28:43;;;;;;;3.25;3.03;;;12.90;99.90;;;;;;6246412;28;20107;-80
2023/05/11 06:31:48;;;;;;;3.95;3.65;;;12.80;99.90;;;;;;6236934;28;20034;-79
2023/05/11 06:34:49;;;;;;;4.97;3.72;;;12.90;99.90;;;;;;6239029;28;20203;-77
2023/05/11 06:37:52;;;;;;;6.05;3.22;;;13.00;99.90;;;;;;6238602;28;20053;-78
2023/05/11 06:40:55;;;;;;;3.67;3.10;;;13.00;99.90;;;;;;6241443;28;20064;-79
2023/05/11 06:43:56;;;;;;;4.00;3.00;;;13.10;99.90;;;;;;6239532;28;20041;-78
2023/05/11 06:46:59;;;;;;;6.13;3.17;;;13.20;99.90;;;;;;6236426;28;20389;-80
2023/05/11 06:50:01;;;;;;;3.30;3.00;;;13.40;99.90;;;;;;6235450;28;20045;-79
2023/05/11 06:53:04;;;;;;;8.20;3.45;;;13.50;99.90;;;;;;6239838;28;20049;-78
2023/05/11 06:56:07;;;;;;;4.93;3.53;;;13.60;99.90;;;;;;6240466;28;20061;-79
2023/05/11 06:59:08;;;;;;;4.93;3.78;;;13.70;99.90;;;;;;6238787;28;20042;-78
2023/05/11 07:02:10;;;;;;;3.70;3.38;;;13.80;99.90;;;;;;6235762;28;20033;-79
2023/05/11 07:05:12;;;;;;;4.70;3.10;;;14.00;99.90;;;;;;6238143;28;20054;-79
2023/05/11 07:08:15;;;;;;;4.03;3.72;;;14.00;99.90;;;;;;6240395;28;20049;-80
2023/05/11 07:11:17;;;;;;;5.72;3.22;;;14.00;99.90;;;;;;6236966;28;20058;-79
2023/05/11 07:14:19;;;;;;;6.53;4.20;;;14.00;99.90;;;;;;6239753;28;20045;-79
2023/05/11 07:17:21;;;;;;;3.67;3.38;;;14.10;99.90;;;;;;6236117;28;20405;-80
2023/05/11 07:20:22;;;;;;;5.05;4.03;;;14.20;99.90;;;;;;6231585;28;20454;-79
2023/05/11 07:23:25;;;;;;;4.15;3.75;;;14.20;99.90;;;;;;6236815;28;20038;-80
2023/05/11 07:26:27;;;;;;;4.20;3.80;;;14.20;99.90;;;;;;6238694;28;20052;-80
2023/05/11 07:29:29;;;;;;;3.65;3.35;;;14.30;99.90;;;;;;6239863;28;20041;-79
2023/05/11 07:32:30;;;;;;;5.03;3.47;;;14.40;99.90;;;;;;6237514;28;20058;-80
2023/05/11 07:35:32;;;;;;;2.88;2.58;;;14.40;99.90;;;;;;6239008;28;20054;-80
2023/05/11 07:38:35;;;;;;;3.08;2.88;;;14.60;99.90;;;;;;6235746;28;20061;-80
2023/05/11 07:41:37;;;;;;;2.83;2.63;;;14.60;99.90;;;;;;6237265;28;20056;-78
2023/05/11 07:44:38;;;;;;;3.53;3.20;;;14.70;99.90;;;;;;6242484;28;20049;-80
2023/05/11 07:47:40;;;;;;;4.43;4.00;;;14.70;99.90;;;;;;6244980;28;20053;-78
2023/05/11 07:50:42;;;;;;;4.97;3.38;;;14.60;99.90;;;;;;6242226;28;20049;-80
2023/05/11 07:53:45;;;;;;;3.55;2.75;;;14.60;99.90;;;;;;6240282;28;20049;-80
2023/05/11 07:56:47;;;;;;;3.55;3.22;;;14.60;99.90;;;;;;6241673;28;20045;-80
2023/05/11 07:59:48;;;;;;;3.08;2.78;;;14.50;99.90;;;;;;6244302;28;20049;-79
2023/05/11 08:02:50;;;;;;;3.08;2.78;;;14.60;99.90;;;;;;6240677;28;20053;-79
2023/05/11 08:05:52;;;;;;;3.65;3.03;;;14.70;99.90;;;;;;6241749;28;20049;-79
2023/05/11 08:08:55;;;;;;;3.80;3.50;;;14.60;99.90;;;;;;6243386;28;20049;-80
2023/05/11 08:11:56;;;;;;;5.85;3.55;;;14.60;99.90;;;;;;6241998;28;20041;-79
2023/05/11 08:14:58;;;;;;;5.53;3.38;;;14.60;99.90;;;;;;6242648;28;20068;-80
2023/05/11 08:18:00;;;;;;;4.80;2.80;;;14.80;99.90;;;;;;6242434;28;20057;-80
2023/05/11 08:21:02;;;;;;;5.00;3.85;;;14.90;99.90;;;;;;6243340;28;20064;-80
2023/05/11 08:24:05;;;;;;;3.95;3.65;;;15.00;99.90;;;;;;6237972;28;20449;-79
2023/05/11 08:27:07;;;;;;;5.47;3.83;;;15.00;99.90;;;;;;6244229;28;20053;-78
2023/05/11 08:30:10;;;;;;;3.55;3.25;;;14.90;99.90;;;;;;6242489;28;20195;-79
2023/05/11 08:33:12;;;;;;;3.55;3.25;;;15.00;99.90;;;;;;6240096;28;20105;-81
2023/05/11 08:36:14;;;;;;;3.72;3.42;;;15.10;99.90;;;;;;6240885;28;20057;-79
2023/05/11 08:39:17;;;;;;;5.43;3.22;;;15.10;99.90;;;;;;6241128;28;20049;-80
2023/05/11 08:42:21;;;;;;;4.15;2.75;;;15.10;99.90;;;;;;6239336;28;20041;-79
2023/05/11 08:45:23;;;;;;;4.25;3.00;;;15.00;99.90;;;;;;6240859;28;20049;-81
2023/05/11 08:48:25;;;;;;;4.15;3.15;;;15.10;99.90;;;;;;6241853;28;20056;-79
2023/05/11 08:51:28;;;;;;;4.28;3.88;;;15.10;99.90;;;;;;6240733;28;20061;-78
2023/05/11 08:54:31;;;;;;;3.83;3.28;;;15.20;99.90;;;;;;6238794;28;20045;-78
2023/05/11 08:57:35;;;;;;;4.85;4.00;;;15.40;99.90;;;;;;6240470;28;20054;-79
2023/05/11 09:00:37;;;;;;;6.30;4.35;;;15.50;99.90;;;;;;6241486;28;20053;-78
2023/05/11 09:03:40;;;;;;;4.57;3.58;;;15.50;99.90;;;;;;6238895;28;20048;-77
2023/05/11 09:06:42;;;;;;;4.80;3.47;;;15.70;99.90;;;;;;6238161;28;20050;-78
2023/05/11 09:09:46;;;;;;;4.43;4.00;;;15.70;99.90;;;;;;6240364;28;20057;-78
2023/05/11 09:12:48;;;;;;;4.88;4.38;;;15.60;99.90;;;;;;6239248;28;20057;-80
2023/05/11 09:15:49;;;;;;;4.00;3.58;;;15.60;99.90;;;;;;6239495;28;20056;-79
2023/05/11 09:18:53;;;;;;;5.43;3.72;;;15.70;99.90;;;;;;6243034;28;20084;-80
2023/05/11 09:21:54;;;;;;;7.10;4.38;;;15.80;99.90;;;;;;6241454;28;20045;-79
2023/05/11 09:24:57;;;;;;;6.68;3.67;;;15.70;99.90;;;;;;6240106;28;20116;-78
2023/05/11 09:28:00;;;;;;;4.07;3.67;;;15.80;99.90;;;;;;6253522;28;20064;-77
2023/05/11 09:31:01;;;;;;;5.03;4.35;;;15.60;99.90;;;;;;6239633;28;20385;-79
2023/05/11 09:34:12;;;;;;;3.83;3.45;;;15.70;99.90;;;;;;6237638;28;20519;-77
2023/05/11 09:37:17;;;;;;;4.45;3.80;;;15.90;99.90;;;;;;6241240;28;20183;-78
2023/05/11 09:40:20;;;;;;;4.75;3.97;;;16.10;99.90;;;;;;6240672;28;20085;-77
2023/05/11 09:43:25;;;;;;;4.32;3.58;;;16.30;99.90;;;;;;6241822;28;20045;-79
2023/05/11 09:46:26;;;;;;;4.72;4.15;;;16.40;99.90;;;;;;6236858;28;20048;-79
2023/05/11 09:49:29;;;;;;;4.75;4.18;;;16.60;99.90;;;;;;6239533;28;20037;-78
2023/05/11 09:52:31;;;;;;;4.53;4.07;;;16.80;99.90;;;;;;6242028;28;20053;-79
2023/05/11 09:55:34;;;;;;;4.78;4.38;;;16.80;99.90;;;;;;6240049;28;20046;-78
2023/05/11 09:58:46;;;;;;;6.00;3.67;;;16.80;99.90;;;;;;6240686;28;20045;-79
2023/05/11 10:01:48;;;;;;;5.43;4.82;;;16.90;99.90;;;;;;6238067;28;20059;-77
2023/05/11 10:04:51;;;;;;;4.28;3.88;;;17.00;99.90;;;;;;6239561;28;20041;-79
2023/05/11 10:07:57;;;;;;;11.50;4.22;;;17.10;99.90;;;;;;6238173;28;20045;-78
2023/05/11 10:11:02;;;;;;;4.68;4.13;;;17.20;99.90;;;;;;6240303;28;20049;-78
2023/05/11 10:14:03;;;;;;;3.85;3.47;;;17.30;99.90;;;;;;6240158;28;20056;-79
2023/05/11 10:17:05;;;;;;;3.47;3.17;;;17.40;99.90;;;;;;6237141;28;20508;-78
2023/05/11 10:20:08;;;;;;;4.55;3.28;;;17.50;99.90;;;;;;6236065;28;20045;-79
2023/05/11 10:23:12;;;;;;;9.95;4.30;;;17.60;99.90;;;;;;6233043;28;20073;-78
2023/05/11 10:26:16;;;;;;;4.88;4.45;;;17.70;99.90;;;;;;6237158;28;20049;-78
2023/05/11 10:29:19;;;;;;;4.43;3.45;;;17.70;99.90;;;;;;6233447;28;20076;-78
2023/05/11 10:32:21;;;;;;;3.40;3.10;;;17.90;99.90;;;;;;6235602;28;20068;-78
2023/05/11 10:35:23;;;;;;;4.93;4.07;;;17.90;99.90;;;;;;6234838;28;20073;-78
2023/05/11 10:38:25;;;;;;;3.50;3.20;;;17.90;99.90;;;;;;6233267;28;20475;-78
2023/05/11 10:41:49;;;;;;;6.20;4.18;;;17.90;99.90;;;;;;6235710;28;20053;-77
2023/05/11 10:45:14;;;;;;;3.95;3.50;;;18.00;99.90;;;;;;6231831;28;20049;-78
2023/05/11 10:48:52;;;;;;;3.65;3.33;;;18.10;99.90;;;;;;6231578;28;20144;-78
2023/05/11 10:52:16;;;;;;;5.55;3.40;;;18.40;99.90;;;;;;6232859;28;20097;-78
2023/05/11 10:55:30;;;;;;;5.80;3.33;;;18.60;99.90;;;;;;6230997;28;20064;-78
2023/05/11 10:58:50;;;;;;;3.42;2.83;;;18.70;99.90;;;;;;6236778;28;20071;-78
2023/05/11 11:01:56;;;;;;;3.72;3.17;;;18.80;99.90;;;;;;6233169;28;20057;-78
2023/05/11 11:05:01;;;;;;;3.58;3.28;;;19.00;99.90;;;;;;6234851;28;20400;-78
2023/05/11 11:08:03;;;;;;;4.50;3.28;;;19.10;99.90;;;;;;6239504;28;20069;-77
2023/05/11 11:11:32;;;;;;;4.47;3.47;;;19.10;99.70;;;;;;6239004;28;20073;-79
2023/05/11 11:14:54;;;;;;;4.45;3.72;;;18.80;99.40;;;;;;6233239;28;20049;-78
2023/05/11 11:18:21;;;;;;;5.15;4.65;;;18.70;99.60;;;;;;6236528;28;20400;-79
2023/05/11 11:21:41;;;;;;;4.15;3.72;;;18.70;99.70;;;;;;6240979;28;20056;-78
2023/05/11 11:24:44;;;;;;;4.13;3.72;;;18.80;99.50;;;;;;6241163;28;20048;-79
2023/05/11 11:27:58;;;;;;;4.45;4.05;;;19.00;99.30;;;;;;6242759;28;20400;-78
2023/05/11 11:31:26;;;;;;;3.80;3.38;;;19.00;98.70;;;;;;6240958;28;20046;-77
2023/05/11 11:34:36;;;;;;;7.47;3.47;;;19.00;98.40;;;;;;6237425;28;20057;-78
2023/05/11 11:38:02;;;;;;;3.33;3.10;;;19.00;98.20;;;;;;6245483;28;20045;-77
2023/05/11 11:41:07;;;;;;;4.20;3.80;;;19.00;98.10;;;;;;6245792;28;20045;-78
2023/05/11 11:44:20;;;;;;;5.50;5.00;;;18.80;98.00;;;;;;6241023;28;20041;-78
2023/05/11 11:47:25;;;;;;;5.20;3.30;;;18.70;98.10;;;;;;6240615;28;20069;-77
2023/05/11 11:50:28;;;;;;;11.88;10.85;;;18.70;98.10;;;;;;6240456;28;20064;-79
2023/05/11 11:53:58;;;;;;;7.95;4.30;;;18.90;98.10;;;;;;6239734;28;20053;-79
2023/05/11 11:57:00;;;;;;;3.72;3.40;;;19.00;97.90;;;;;;6237468;28;22928;-76
2023/05/11 12:00:04;;;;;;;4.22;3.83;;;19.20;97.70;;;;;;6234762;28;20053;-78
2023/05/11 12:03:10;;;;;;;6.60;4.53;;;19.40;97.50;;;;;;6237410;28;20053;-77
2023/05/11 12:06:12;;;;;;;7.97;5.50;;;19.60;97.10;;;;;;6239201;28;20037;-78
2023/05/11 12:09:18;;;;;;;5.88;4.15;;;19.70;96.80;;;;;;6235804;28;20061;-78
2023/05/11 12:12:20;;;;;;;4.63;4.22;;;19.90;96.30;;;;;;6240660;28;20096;-78
2023/05/11 12:15:23;;;;;;;6.15;3.78;;;20.10;96.20;;;;;;6239189;28;20053;-78
2023/05/11 12:18:26;;;;;;;8.20;4.72;;;20.30;95.90;;;;;;6238995;28;20091;-78
2023/05/11 12:21:30;;;;;;;4.55;4.07;;;20.40;95.60;;;;;;6240750;28;20418;-78
2023/05/11 12:24:32;;;;;;;5.70;4.22;;;20.40;95.20;;;;;;6240597;28;20479;-77
2023/05/11 12:27:35;;;;;;;5.25;4.40;;;20.50;95.10;;;;;;6238478;28;20053;-78
2023/05/11 12:30:36;;;;;;;7.32;6.00;;;20.70;94.60;;;;;;6238620;28;21554;-78
2023/05/11 12:33:46;;;;;;;4.72;4.10;;;20.80;94.10;;;;;;6238818;28;20404;-79
2023/05/11 12:36:49;;;;;;;4.35;4.05;;;20.90;93.70;;;;;;6238490;28;20104;-77
2023/05/11 12:39:54;;;;;;;4.60;4.20;;;21.10;93.50;;;;;;6240434;28;20046;-82
2023/05/11 12:42:57;;;;;;;5.93;5.32;;;21.10;92.80;;;;;;6240367;28;20507;-79
2023/05/11 12:45:59;;;;;;;4.22;3.80;;;21.10;92.70;;;;;;6239704;28;20037;-79
2023/05/11 12:49:02;;;;;;;4.55;4.15;;;21.10;92.10;;;;;;6239698;28;20064;-80
2023/05/11 12:52:07;;;;;;;5.47;3.92;;;21.20;92.10;;;;;;6241507;28;20045;-79
2023/05/11 12:55:10;;;;;;;5.68;3.75;;;21.40;92.00;;;;;;6240047;28;20041;-78
2023/05/11 12:58:14;;;;;;;6.18;3.42;;;21.40;92.00;;;;;;6235606;28;20131;-79
2023/05/11 13:01:15;;;;;;;4.53;4.13;;;21.50;91.50;;;;;;6240691;28;20111;-79
2023/05/11 13:04:27;;;;;;;4.97;4.07;;;21.60;91.10;;;;;;6239366;28;20053;-79
2023/05/11 13:07:29;;;;;;;3.45;3.15;;;21.70;90.80;;;;;;6240985;28;20060;-79
2023/05/11 13:10:31;;;;;;;4.57;4.07;;;21.90;90.60;;;;;;6239921;28;20488;-78
2023/05/11 13:13:33;;;;;;;4.70;3.17;;;22.10;90.10;;;;;;6239265;28;20045;-79
2023/05/11 13:16:34;;;;;;;4.28;3.88;;;22.00;89.60;;;;;;6242695;28;20049;-79
2023/05/11 13:19:38;;;;;;;4.03;3.63;;;22.00;88.90;;;;;;6241001;28;20408;-79
2023/05/11 13:22:40;;;;;;;5.80;4.38;;;22.10;88.40;;;;;;6241985;28;20041;-79
2023/05/11 13:25:53;;;;;;;6.68;3.92;;;22.30;87.80;;;;;;6239812;28;20072;-79
2023/05/11 13:28:54;;;;;;;3.40;3.10;;;22.30;86.40;;;;;;6242113;28;20056;-80
2023/05/11 13:31:56;;;;;;;4.85;4.45;;;22.20;86.90;;;;;;6241772;28;20045;-79
2023/05/11 13:35:01;;;;;;;4.22;3.92;;;22.30;86.60;;;;;;6242062;28;20040;-80
2023/05/11 13:38:03;;;;;;;4.65;4.13;;;22.40;86.20;;;;;;6242660;28;20512;-79
2023/05/11 13:41:05;;;;;;;4.88;4.38;;;22.40;85.60;;;;;;6241167;28;20049;-78
2023/05/11 13:44:07;;;;;;;4.20;3.80;;;22.30;84.60;;;;;;6242913;28;20087;-79
2023/05/11 13:47:08;;;;;;;4.30;3.90;;;22.30;84.80;;;;;;6243134;28;20412;-79
2023/05/11 13:50:12;;;;;;;3.42;3.13;;;22.50;85.40;;;;;;6240778;28;20053;-79
2023/05/11 13:53:14;;;;;;;3.85;3.00;;;22.80;84.20;;;;;;6242168;28;20046;-79
2023/05/11 13:56:18;;;;;;;5.75;3.35;;;22.90;82.80;;;;;;6240786;28;20045;-81
2023/05/11 13:59:20;;;;;;;3.90;2.67;;;22.70;81.60;;;;;;6238027;28;20048;-81
2023/05/11 14:02:21;;;;;;;2.83;2.28;;;22.40;80.90;;;;;;6239248;28;20530;-79
2023/05/11 14:05:25;;;;;;;4.10;3.15;;;22.20;81.00;;;;;;6238724;28;20045;-80
2023/05/11 14:08:27;;;;;;;9.02;7.15;;;22.10;80.10;;;;;;6241423;28;20053;-79
2023/05/11 14:11:28;;;;;;;3.05;1.70;;;22.10;80.70;;;;;;6238489;28;20050;-79
2023/05/11 14:14:30;;;;;;;2.88;1.73;;;22.20;80.00;;;;;;6239958;28;20041;-80
2023/05/11 14:17:32;;;;;;;5.18;1.90;;;22.30;79.00;;;;;;6237512;28;20045;-81
2023/05/11 14:20:36;;;;;;;2.75;2.55;;;22.50;77.70;;;;;;6237039;28;20705;-82
2023/05/11 14:23:38;;;;;;;5.72;2.50;;;22.30;77.80;;;;;;6239671;28;20078;-81
2023/05/11 14:26:39;;;;;;;4.43;2.55;;;22.20;78.20;;;;;;6240384;28;20045;-80
2023/05/11 14:29:41;;;;;;;2.38;2.17;;;21.80;78.30;;;;;;6240498;28;20056;-80
2023/05/11 14:32:43;;;;;;;2.72;1.92;;;21.50;79.20;;;;;;6239957;28;20160;-81
2023/05/11 14:35:49;;;;;;;2.70;2.50;;;21.20;79.10;;;;;;6240941;28;20037;-84
2023/05/11 14:38:51;;;;;;;3.25;2.85;;;21.10;79.60;;;;;;6240719;28;20138;-78
2023/05/11 14:41:52;;;;;;;2.65;2.45;;;21.10;80.00;;;;;;6239309;28;20053;-80
2023/05/11 14:44:54;;;;;;;5.97;2.35;;;21.00;80.20;;;;;;6239402;28;20057;-80
2023/05/11 14:47:56;;;;;;;2.53;1.95;;;20.90;80.80;;;;;;6241195;28;20045;-80
2023/05/11 14:50:59;;;;;;;3.05;2.75;;;21.00;81.10;;;;;;6240242;28;20045;-80
2023/05/11 14:54:00;;;;;;;3.10;2.80;;;21.00;80.40;;;;;;6240094;28;20056;-81
2023/05/11 14:57:03;;;;;;;3.35;2.67;;;20.70;81.20;;;;;;6241771;28;20065;-80
2023/05/11 15:00:07;;;;;;;4.15;2.42;;;20.70;81.40;;;;;;6239899;28;20064;-80
2023/05/11 15:03:09;;;;;;;4.45;2.60;;;20.60;81.30;;;;;;6241308;28;20059;-80
2023/05/11 15:06:19;;;;;;;2.63;2.42;;;20.70;81.20;;;;;;6240090;28;20127;-83
2023/05/11 15:09:22;;;;;;;3.35;2.63;;;20.80;81.30;;;;;;6240219;28;20151;-79
2023/05/11 15:12:24;;;;;;;2.83;2.63;;;20.70;81.30;;;;;;6243418;28;20049;-82
2023/05/11 15:15:26;;;;;;;2.67;1.95;;;20.60;81.00;;;;;;6241333;28;20045;-79
2023/05/11 15:18:27;;;;;;;2.25;2.05;;;20.60;80.90;;;;;;6239098;28;20052;-78
2023/05/11 15:21:31;;;;;;;3.10;2.88;;;20.50;81.50;;;;;;6241420;28;20064;-78
2023/05/11 15:24:33;;;;;;;2.97;2.53;;;21.00;80.70;;;;;;6240575;28;20041;-82
2023/05/11 15:27:35;;;;;;;3.17;2.95;;;21.00;80.10;;;;;;6242013;28;20060;-80
2023/05/11 15:30:40;;;;;;;3.33;2.05;;;21.10;80.00;;;;;;6240421;28;20057;-81
2023/05/11 15:33:49;;;;;;;2.13;1.92;;;21.20;79.80;;;;;;6245120;28;20037;-84
2023/05/11 15:37:16;;;;;;;2.45;1.90;;;21.10;79.30;;;;;;6248478;28;20109;-84
2023/05/11 15:40:18;;;;;;;2.85;2.55;;;21.00;79.30;;;;;;6244831;28;20053;-81
2023/05/11 15:43:19;;;;;;;3.05;1.83;;;20.90;79.50;;;;;;6243584;28;20068;-83
2023/05/11 15:46:21;;;;;;;3.15;1.92;;;20.80;78.70;;;;;;6243140;28;20165;-82
2023/05/11 15:49:23;;;;;;;2.38;1.80;;;20.50;78.60;;;;;;6246666;28;20081;-82
2023/05/11 15:52:26;;;;;;;2.15;1.75;;;20.50;79.30;;;;;;6243988;28;20065;-82
2023/05/11 15:55:27;;;;;;;1.70;1.60;;;20.70;78.90;;;;;;6243229;28;20034;-82